Dora, Missouri
Current Conditions -  °F | °C
As of 12:53 AM on Tuesday 21 Oct 2014 (Local Time) from KUNO Reporting Station
Clear Clear  
Wind Chill: 54°   Ceiling: Unl
Heat Index: 54°   Visibility: 10mi
Dew Point: 48°   Wind: 3mph
Humidity: 80%   Direction: 360°N
Pressure: 30.07"   Gusts: NA
Location:  36.78°N, 92.22°W
Report Text: KUNO 210553Z AUTO 36003KT 10SM CLR 12/09 A3007 RMK AO2 SLPNO T01220089 10172 20100 402390100 51002
Loading
Personal Weather Stations






























Interactive Weather Map
Tropical Storm Tracking
New forecast layout! Learn more

10-Day Weather Forecast

Advertisements
Track Severe Weather on mobile